utilisation pie
utilisation bar
humidity graph
temperature graph
Station id: aae83c for 2 days

start:   stop:  

day time in temp out temp in RH out RH H quota rule action
2021-09-24 00:26:51 15.5 8.0 59 91 96 h 0
2021-09-24 00:57:03 15.6 7.9 63 92 90 t
1
2021-09-24 01:27:16 16.2 7.8 59 92 92 t
1
2021-09-24 01:57:28 15.0 7.8 60 93 99 h 0
2021-09-24 02:27:43 15.7 7.9 63 93 91 t
1
2021-09-24 02:57:55 15.1 7.9 61 94 98 h 0
2021-09-24 03:28:12 15.1 8.0 63 94 95 h 0
2021-09-24 03:58:31 16.2 8.1 61 94 93 t
1
2021-09-24 04:28:47 14.8 8.1 62 94 100 h 0
2021-09-24 04:59:06 14.9 8.2 65 94 96 h 0
2021-09-24 05:29:18 15.8 8.3 62 95 96 h 0
2021-09-24 05:59:30 15.1 8.3 64 95 97 h 0
2021-09-24 06:29:42 14.9 8.4 66 95 96 h 0
2021-09-24 06:59:55 15.6 8.5 63 94 96 h 0
2021-09-24 07:30:27 15.0 8.6 65 94 97 h 0
2021-09-24 08:00:39 15.0 8.6 66 94 96 h 0
2021-09-24 08:30:51 15.4 8.8 63 94 98 h 0
2021-09-24 09:01:03 14.9 8.9 65 94 99 h 0
2021-09-24 09:31:16 15.0 9.2 66 94 100 h 0
2021-09-24 10:01:28 15.3 9.5 64 93 101 h 0
2021-09-24 10:31:40 14.8 9.8 66 93 104 h 0
2021-09-24 11:01:52 15.1 10.2 65 92 104 h 0
2021-09-24 11:32:04 15.2 10.6 65 91 106 h 0
2021-09-24 12:02:17 14.8 10.8 66 90 106 h 0
2021-09-24 12:32:29 15.3 10.9 65 89 105 h 0
2021-09-24 13:02:41 15.3 10.9 65 89 105 h 0
2021-09-24 13:32:53 14.8 11.1 66 88 106 h 0
2021-09-24 14:03:05 15.3 11.5 65 88 107 h 0
2021-09-24 14:33:17 15.4 11.6 65 86 106 h 0
2021-09-24 15:03:29 14.9 11.5 66 86 105 h 0
2021-09-24 15:33:42 15.3 11.7 65 85 104 h 0
2021-09-24 16:03:54 15.4 12.2 65 83 105 h 0
2021-09-24 16:34:06 0.0 12.2 0 82 100 e 0
2021-09-24 17:04:20 0.0 11.9 0 82 100 e 0
2021-09-24 17:34:33 0.0 11.6 0 82 100 e 0
2021-09-24 18:04:45 14.9 10.9 67 84 98 h 0
2021-09-24 18:34:57 0.0 10.2 0 86 100 e 0
2021-09-24 19:05:09 15.4 9.8 65 88 95 h 0
2021-09-24 19:35:21 14.9 9.8 67 87 95 h 0
2021-09-24 20:05:33 15.5 9.6 65 88 94 t
1
2021-09-24 20:35:46 14.6 9.3 66 89 97 h 0
2021-09-24 21:06:03 14.7 9.0 66 90 96 h 0
2021-09-24 21:36:15 15.1 8.9 65 90 94 t
1
2021-09-24 22:06:27 14.5 8.8 65 91 98 h 0
2021-09-24 22:36:39 14.5 8.9 65 92 99 h 0
2021-09-24 23:06:51 14.8 9.1 65 92 99 h 0
2021-09-24 23:37:04 15.0 9.3 64 93 101 h 0
2021-09-25 00:07:16 14.6 9.5 66 93 103 h 0
2021-09-25 00:37:28 14.7 9.7 66 93 103 h 0
2021-09-25 01:07:40 0.0 9.9 0 94 100 e 0
2021-09-25 01:37:52 14.6 10.1 66 94 108 h 0
2021-09-25 02:08:23 14.6 10.3 67 94 108 h 0
2021-09-25 02:38:35 15.1 10.6 65 94 110 h 0
2021-09-25 03:08:47 14.6 10.8 66 95 113 h 0
2021-09-25 03:38:59 14.5 11.0 67 95 114 h 0
2021-09-25 04:09:11 15.2 11.3 64 95 116 h 0
2021-09-25 04:39:28 14.7 11.4 66 95 117 h 0
2021-09-25 05:09:40 14.4 11.5 67 95 118 h 0
2021-09-25 05:39:57 15.4 11.6 64 95 118 h 0
2021-09-25 06:10:10 14.8 11.6 66 95 118 h 0
2021-09-25 06:40:23 14.5 11.5 67 94 116 h 0
2021-09-25 07:10:35 15.6 11.1 64 94 112 h 0
2021-09-25 07:40:48 14.8 10.8 66 94 111 h 0
2021-09-25 08:11:01 14.5 11.0 67 93 111 h 0
2021-09-25 08:41:13 15.5 11.6 64 93 114 h 0
2021-09-25 09:11:35 14.9 12.1 66 91 117 h 0
2021-09-25 09:41:47 14.5 11.8 67 89 112 h 0
2021-09-25 10:11:59 15.2 12.3 65 86 110 h 0
2021-09-25 10:42:11 15.3 13.0 65 83 112 h 0
2021-09-25 11:12:23 15.0 13.5 65 81 113 h 0
2021-09-25 11:42:35 15.3 14.0 65 78 111 h 0
2021-09-25 12:12:48 0.0 14.5 0 76 100 e 0
2021-09-25 12:43:00 15.5 15.1 64 75 115 h 0
2021-09-25 13:13:13 15.7 15.8 64 72 114 h 0
2021-09-25 13:43:25 0.0 16.2 0 69 100 e 0
2021-09-25 14:13:42 16.1 16.6 53 64 125 h 0
2021-09-25 14:43:54 16.9 16.8 57 63 110 h 0
2021-09-25 15:14:06 16.8 17.3 58 61 109 h 0
2021-09-25 15:44:18 16.7 17.5 51 59 122 h 0
2021-09-25 16:14:31 17.9 17.6 49 57 114 h 0
2021-09-25 16:44:43 17.2 16.9 52 60 113 h 0
2021-09-25 17:14:55 17.0 16.6 55 61 108 h 0
2021-09-25 17:45:07 17.9 16.1 53 62 105 h 0
2021-09-25 18:15:19 17.0 15.3 57 65 104 h 0
2021-09-25 18:45:31 17.1 14.2 57 68 100 h 0
2021-09-25 19:15:43 0.0 13.1 0 70 100 e 0
2021-09-25 19:45:56 0.0 12.4 0 71 100 e 0


2021-09-25 20:51:51 CEST